sensor_id;sensor_type;location;lat;lon;timestamp;pressure;altitude;pressure_sealevel;temperature;humidity
4149;BME280;2088;51.032;7.082;2022-08-25T00:01:49;47823.84;;;-142.28;39.51
4149;BME280;2088;51.032;7.082;2022-08-25T00:04:17;47827.72;;;-142.28;39.57
4149;BME280;2088;51.032;7.082;2022-08-25T00:06:45;47854.81;;;-142.28;39.75
4149;BME280;2088;51.032;7.082;2022-08-25T00:09:15;47845.13;;;-142.28;39.60
4149;BME280;2088;51.032;7.082;2022-08-25T00:11:44;47818.03;;;-142.28;39.70
4149;BME280;2088;51.032;7.082;2022-08-25T00:14:14;47818.03;;;-142.28;39.88
4149;BME280;2088;51.032;7.082;2022-08-25T00:16:41;47837.38;;;-142.28;39.83
4149;BME280;2088;51.032;7.082;2022-08-25T00:19:11;47818.03;;;-142.28;40.09
4149;BME280;2088;51.032;7.082;2022-08-25T00:21:38;47839.31;;;-142.28;40.23
4149;BME280;2088;51.032;7.082;2022-08-25T00:24:05;47825.78;;;-142.28;40.45
4149;BME280;2088;51.032;7.082;2022-08-25T00:26:33;47839.31;;;-142.28;40.35
4149;BME280;2088;51.032;7.082;2022-08-25T00:29:01;47827.72;;;-142.28;40.42
4149;BME280;2088;51.032;7.082;2022-08-25T00:31:28;47825.78;;;-142.28;40.61
4149;BME280;2088;51.032;7.082;2022-08-25T00:33:55;47860.63;;;-142.28;40.77
4149;BME280;2088;51.032;7.082;2022-08-25T00:36:22;47862.53;;;-142.28;40.96
4149;BME280;2088;51.032;7.082;2022-08-25T00:38:50;47843.19;;;-142.28;41.06
4149;BME280;2088;51.032;7.082;2022-08-25T00:41:22;47831.59;;;-142.28;41.30
4149;BME280;2088;51.032;7.082;2022-08-25T00:43:51;47823.84;;;-142.28;41.50
4149;BME280;2088;51.032;7.082;2022-08-25T00:46:23;47835.47;;;-142.28;41.62
4149;BME280;2088;51.032;7.082;2022-08-25T00:48:53;47852.88;;;-142.28;41.85
4149;BME280;2088;51.032;7.082;2022-08-25T00:51:27;47829.66;;;-142.28;41.98
4149;BME280;2088;51.032;7.082;2022-08-25T00:53:55;47835.47;;;-142.28;42.22
4149;BME280;2088;51.032;7.082;2022-08-25T00:56:22;47839.31;;;-142.28;42.33
4149;BME280;2088;51.032;7.082;2022-08-25T00:58:50;47847.06;;;-142.28;42.48
4149;BME280;2088;51.032;7.082;2022-08-25T01:01:16;47847.06;;;-142.28;42.61
4149;BME280;2088;51.032;7.082;2022-08-25T01:03:44;47819.97;;;-142.28;42.56
4149;BME280;2088;51.032;7.082;2022-08-25T01:06:11;47858.69;;;-142.28;42.97
4149;BME280;2088;51.032;7.082;2022-08-25T01:08:38;47839.31;;;-142.28;43.26
4149;BME280;2088;51.032;7.082;2022-08-25T01:11:06;47845.13;;;-142.28;43.30
4149;BME280;2088;51.032;7.082;2022-08-25T01:13:37;47854.81;;;-142.28;43.71
4149;BME280;2088;51.032;7.082;2022-08-25T01:16:04;47854.81;;;-142.28;44.22
4149;BME280;2088;51.032;7.082;2022-08-25T01:18:41;47831.59;;;-142.28;44.40
4149;BME280;2088;51.032;7.082;2022-08-25T01:21:10;47841.25;;;-142.28;44.77
4149;BME280;2088;51.032;7.082;2022-08-25T01:23:37;47866.41;;;-142.28;44.68
4149;BME280;2088;51.032;7.082;2022-08-25T01:26:07;47839.31;;;-142.28;44.58
4149;BME280;2088;51.032;7.082;2022-08-25T01:28:34;47854.81;;;-142.28;44.88
4149;BME280;2088;51.032;7.082;2022-08-25T01:31:01;47816.09;;;-142.28;44.60
4149;BME280;2088;51.032;7.082;2022-08-25T01:33:29;47835.47;;;-142.28;44.59
4149;BME280;2088;51.032;7.082;2022-08-25T01:35:56;47839.31;;;-142.28;45.10
4149;BME280;2088;51.032;7.082;2022-08-25T01:38:23;47847.06;;;-142.28;44.99
4149;BME280;2088;51.032;7.082;2022-08-25T01:40:50;47810.31;;;-142.28;45.07
4149;BME280;2088;51.032;7.082;2022-08-25T01:43:25;47843.19;;;-142.28;45.06
4149;BME280;2088;51.032;7.082;2022-08-25T01:45:55;47849.00;;;-142.28;45.36
4149;BME280;2088;51.032;7.082;2022-08-25T01:48:22;47837.38;;;-142.28;45.73
4149;BME280;2088;51.032;7.082;2022-08-25T01:50:48;47806.44;;;-142.28;45.75
4149;BME280;2088;51.032;7.082;2022-08-25T01:53:21;47852.88;;;-142.28;46.05
4149;BME280;2088;51.032;7.082;2022-08-25T01:55:49;47847.06;;;-142.28;46.35
4149;BME280;2088;51.032;7.082;2022-08-25T01:58:27;47850.94;;;-142.28;46.38
4149;BME280;2088;51.032;7.082;2022-08-25T02:00:56;47837.38;;;-142.28;46.59
4149;BME280;2088;51.032;7.082;2022-08-25T02:03:24;47850.94;;;-142.28;47.11
4149;BME280;2088;51.032;7.082;2022-08-25T02:05:51;47835.47;;;-142.28;47.40
4149;BME280;2088;51.032;7.082;2022-08-25T02:08:18;47816.09;;;-142.28;47.65
4149;BME280;2088;51.032;7.082;2022-08-25T02:10:45;47839.31;;;-142.28;47.99
4149;BME280;2088;51.032;7.082;2022-08-25T02:13:14;47819.97;;;-142.28;48.16
4149;BME280;2088;51.032;7.082;2022-08-25T02:15:41;47814.16;;;-142.28;48.83
4149;BME280;2088;51.032;7.082;2022-08-25T02:18:08;47831.59;;;-142.28;49.14
4149;BME280;2088;51.032;7.082;2022-08-25T02:20:35;47845.13;;;-142.28;49.61
4149;BME280;2088;51.032;7.082;2022-08-25T02:23:02;47852.88;;;-142.28;49.99
4149;BME280;2088;51.032;7.082;2022-08-25T02:25:29;47845.13;;;-142.28;50.06
4149;BME280;2088;51.032;7.082;2022-08-25T02:27:56;47833.53;;;-142.28;50.83
4149;BME280;2088;51.032;7.082;2022-08-25T02:30:25;47850.94;;;-142.28;51.46
4149;BME280;2088;51.032;7.082;2022-08-25T02:32:51;47823.84;;;-142.28;51.98
4149;BME280;2088;51.032;7.082;2022-08-25T02:35:18;47837.38;;;-142.28;52.90
4149;BME280;2088;51.032;7.082;2022-08-25T02:37:45;47841.25;;;-142.28;52.95
4149;BME280;2088;51.032;7.082;2022-08-25T02:40:11;47849.00;;;-142.28;53.48
4149;BME280;2088;51.032;7.082;2022-08-25T02:42:38;47843.19;;;-142.28;53.61
4149;BME280;2088;51.032;7.082;2022-08-25T02:45:05;47843.19;;;-142.28;54.05
4149;BME280;2088;51.032;7.082;2022-08-25T02:47:34;47862.53;;;-142.28;54.42
4149;BME280;2088;51.032;7.082;2022-08-25T02:50:01;47872.22;;;-142.28;54.31
4149;BME280;2088;51.032;7.082;2022-08-25T02:52:27;47808.38;;;-142.28;54.38
4149;BME280;2088;51.032;7.082;2022-08-25T02:54:54;47850.94;;;-142.28;54.98
4149;BME280;2088;51.032;7.082;2022-08-25T02:57:20;47845.13;;;-142.28;55.24
4149;BME280;2088;51.032;7.082;2022-08-25T02:59:47;47833.53;;;-142.28;55.54
4149;BME280;2088;51.032;7.082;2022-08-25T03:02:14;47866.41;;;-142.28;55.83
4149;BME280;2088;51.032;7.082;2022-08-25T03:04:43;47866.41;;;-142.28;55.93
4149;BME280;2088;51.032;7.082;2022-08-25T03:07:09;47854.81;;;-142.28;56.27
4149;BME280;2088;51.032;7.082;2022-08-25T03:09:37;47854.81;;;-142.28;56.35
4149;BME280;2088;51.032;7.082;2022-08-25T03:12:04;47835.47;;;-142.28;56.86
4149;BME280;2088;51.032;7.082;2022-08-25T03:14:30;47852.88;;;-142.28;57.36
4149;BME280;2088;51.032;7.082;2022-08-25T03:16:57;47864.47;;;-142.28;57.69
4149;BME280;2088;51.032;7.082;2022-08-25T03:19:23;47843.19;;;-142.28;57.78
4149;BME280;2088;51.032;7.082;2022-08-25T03:21:52;47868.34;;;-142.28;58.17
4149;BME280;2088;51.032;7.082;2022-08-25T03:24:20;47823.84;;;-142.28;58.61
4149;BME280;2088;51.032;7.082;2022-08-25T03:26:47;47849.00;;;-142.28;58.91
4149;BME280;2088;51.032;7.082;2022-08-25T03:29:18;47852.88;;;-142.28;59.00
4149;BME280;2088;51.032;7.082;2022-08-25T03:31:45;47860.63;;;-142.28;59.17
4149;BME280;2088;51.032;7.082;2022-08-25T03:34:12;47866.41;;;-142.28;59.51
4149;BME280;2088;51.032;7.082;2022-08-25T03:36:38;47845.13;;;-142.28;59.75
4149;BME280;2088;51.032;7.082;2022-08-25T03:39:06;47833.53;;;-142.28;59.82
4149;BME280;2088;51.032;7.082;2022-08-25T03:41:33;47831.59;;;-142.28;60.05
4149;BME280;2088;51.032;7.082;2022-08-25T03:44:03;47839.31;;;-142.28;60.29
4149;BME280;2088;51.032;7.082;2022-08-25T03:46:32;47835.47;;;-142.28;60.67
4149;BME280;2088;51.032;7.082;2022-08-25T03:49:00;47850.94;;;-142.28;61.25
4149;BME280;2088;51.032;7.082;2022-08-25T03:51:30;47823.84;;;-142.28;61.32
4149;BME280;2088;51.032;7.082;2022-08-25T03:53:57;47835.47;;;-142.28;61.30
4149;BME280;2088;51.032;7.082;2022-08-25T03:56:25;47850.94;;;-142.28;61.46
4149;BME280;2088;51.032;7.082;2022-08-25T03:58:52;47823.84;;;-142.28;61.82
4149;BME280;2088;51.032;7.082;2022-08-25T04:01:19;47831.59;;;-142.28;61.88
4149;BME280;2088;51.032;7.082;2022-08-25T04:03:46;47808.38;;;-142.28;61.54
4149;BME280;2088;51.032;7.082;2022-08-25T04:06:15;47833.53;;;-142.28;61.16
4149;BME280;2088;51.032;7.082;2022-08-25T04:08:42;47854.81;;;-142.28;60.80
4149;BME280;2088;51.032;7.082;2022-08-25T04:11:11;47860.63;;;-142.28;60.86
4149;BME280;2088;51.032;7.082;2022-08-25T04:13:40;47833.53;;;-142.28;60.48
4149;BME280;2088;51.032;7.082;2022-08-25T04:16:09;47839.31;;;-142.28;60.54
4149;BME280;2088;51.032;7.082;2022-08-25T04:18:37;47837.38;;;-142.28;60.48
4149;BME280;2088;51.032;7.082;2022-08-25T04:21:05;47839.31;;;-142.28;60.52
4149;BME280;2088;51.032;7.082;2022-08-25T04:23:34;47845.13;;;-142.28;60.25
4149;BME280;2088;51.032;7.082;2022-08-25T04:26:00;47833.53;;;-142.28;60.23
4149;BME280;2088;51.032;7.082;2022-08-25T04:28:27;47876.09;;;-142.28;60.45
4149;BME280;2088;51.032;7.082;2022-08-25T04:30:55;47850.94;;;-142.28;60.25
4149;BME280;2088;51.032;7.082;2022-08-25T04:33:21;47841.25;;;-142.28;60.25
4149;BME280;2088;51.032;7.082;2022-08-25T04:35:48;47845.13;;;-142.28;60.17
4149;BME280;2088;51.032;7.082;2022-08-25T04:38:15;47843.19;;;-142.28;60.19
4149;BME280;2088;51.032;7.082;2022-08-25T04:40:42;47833.53;;;-142.28;60.55
4149;BME280;2088;51.032;7.082;2022-08-25T04:43:08;47862.53;;;-142.28;60.54
4149;BME280;2088;51.032;7.082;2022-08-25T04:45:36;47818.03;;;-142.28;60.40
4149;BME280;2088;51.032;7.082;2022-08-25T04:48:05;47819.97;;;-142.28;60.47
4149;BME280;2088;51.032;7.082;2022-08-25T04:50:31;47837.38;;;-142.28;60.35
4149;BME280;2088;51.032;7.082;2022-08-25T04:52:57;47837.38;;;-142.28;60.31
4149;BME280;2088;51.032;7.082;2022-08-25T04:55:24;47839.31;;;-142.28;60.32
4149;BME280;2088;51.032;7.082;2022-08-25T04:57:50;47837.38;;;-142.28;60.46
4149;BME280;2088;51.032;7.082;2022-08-25T05:00:17;47849.00;;;-142.28;60.48
4149;BME280;2088;51.032;7.082;2022-08-25T05:02:44;47843.19;;;-142.28;60.52
4149;BME280;2088;51.032;7.082;2022-08-25T05:05:11;47850.94;;;-142.28;60.19
4149;BME280;2088;51.032;7.082;2022-08-25T05:07:38;47858.69;;;-142.28;60.13
4149;BME280;2088;51.032;7.082;2022-08-25T05:10:05;47833.53;;;-142.28;60.12
4149;BME280;2088;51.032;7.082;2022-08-25T05:12:32;47837.38;;;-142.28;60.12
4149;BME280;2088;51.032;7.082;2022-08-25T05:14:58;47854.81;;;-142.28;59.75
4149;BME280;2088;51.032;7.082;2022-08-25T05:17:45;47847.06;;;-142.28;59.72
4149;BME280;2088;51.032;7.082;2022-08-25T05:20:12;47835.47;;;-142.28;59.45
4149;BME280;2088;51.032;7.082;2022-08-25T05:22:39;47843.19;;;-142.28;60.01
4149;BME280;2088;51.032;7.082;2022-08-25T05:25:09;47849.00;;;-142.28;59.22
4149;BME280;2088;51.032;7.082;2022-08-25T05:27:35;47870.28;;;-142.28;59.27
4149;BME280;2088;51.032;7.082;2022-08-25T05:30:02;47850.94;;;-142.28;58.80
4149;BME280;2088;51.032;7.082;2022-08-25T05:32:29;47860.63;;;-142.28;58.95
4149;BME280;2088;51.032;7.082;2022-08-25T05:34:55;47831.59;;;-142.28;58.88
4149;BME280;2088;51.032;7.082;2022-08-25T05:37:23;47839.31;;;-142.28;58.45
4149;BME280;2088;51.032;7.082;2022-08-25T05:39:50;47852.88;;;-142.28;58.09
4149;BME280;2088;51.032;7.082;2022-08-25T05:42:17;47825.78;;;-142.28;57.85
4149;BME280;2088;51.032;7.082;2022-08-25T05:44:43;47856.75;;;-142.28;57.73
4149;BME280;2088;51.032;7.082;2022-08-25T05:47:09;47856.75;;;-142.28;57.80
4149;BME280;2088;51.032;7.082;2022-08-25T05:49:36;47860.63;;;-142.28;57.68
4149;BME280;2088;51.032;7.082;2022-08-25T05:52:03;47847.06;;;-142.28;57.54
4149;BME280;2088;51.032;7.082;2022-08-25T05:54:30;47852.88;;;-142.28;57.53
4149;BME280;2088;51.032;7.082;2022-08-25T05:56:57;47831.59;;;-142.28;57.38
4149;BME280;2088;51.032;7.082;2022-08-25T05:59:24;47841.25;;;-142.28;56.72
4149;BME280;2088;51.032;7.082;2022-08-25T06:01:50;47850.94;;;-142.28;56.57
4149;BME280;2088;51.032;7.082;2022-08-25T06:04:35;47847.06;;;-142.28;56.49
4149;BME280;2088;51.032;7.082;2022-08-25T06:07:01;47856.75;;;-142.28;56.23
4149;BME280;2088;51.032;7.082;2022-08-25T06:09:28;47837.38;;;-142.28;56.46
4149;BME280;2088;51.032;7.082;2022-08-25T06:11:55;47831.59;;;-142.28;56.17
4149;BME280;2088;51.032;7.082;2022-08-25T06:14:22;47860.63;;;-142.28;55.75
4149;BME280;2088;51.032;7.082;2022-08-25T06:16:50;47845.13;;;-142.28;55.50
4149;BME280;2088;51.032;7.082;2022-08-25T06:19:17;47841.25;;;-142.28;55.38
4149;BME280;2088;51.032;7.082;2022-08-25T06:21:43;47852.88;;;-142.28;55.25
4149;BME280;2088;51.032;7.082;2022-08-25T06:24:10;47866.41;;;-142.28;54.86
4149;BME280;2088;51.032;7.082;2022-08-25T06:26:36;47843.19;;;-142.28;54.83
4149;BME280;2088;51.032;7.082;2022-08-25T06:29:04;47858.69;;;-142.28;54.94
4149;BME280;2088;51.032;7.082;2022-08-25T06:31:31;47850.94;;;-142.28;54.67
4149;BME280;2088;51.032;7.082;2022-08-25T06:33:57;47843.19;;;-142.28;54.61
4149;BME280;2088;51.032;7.082;2022-08-25T06:36:24;47858.69;;;-142.28;54.32
4149;BME280;2088;51.032;7.082;2022-08-25T06:38:51;47854.81;;;-142.28;54.23
4149;BME280;2088;51.032;7.082;2022-08-25T06:41:17;47835.47;;;-142.28;53.94
4149;BME280;2088;51.032;7.082;2022-08-25T06:43:44;47854.81;;;-142.28;53.55
4149;BME280;2088;51.032;7.082;2022-08-25T06:46:14;47854.81;;;-142.28;53.40
4149;BME280;2088;51.032;7.082;2022-08-25T06:48:41;47841.25;;;-142.28;53.24
4149;BME280;2088;51.032;7.082;2022-08-25T06:51:10;47837.38;;;-142.28;53.32
4149;BME280;2088;51.032;7.082;2022-08-25T06:53:37;47841.25;;;-142.28;52.80
4149;BME280;2088;51.032;7.082;2022-08-25T06:56:04;47854.81;;;-142.28;52.72
4149;BME280;2088;51.032;7.082;2022-08-25T06:58:31;47802.56;;;-142.28;52.58
4149;BME280;2088;51.032;7.082;2022-08-25T07:01:06;47841.25;;;-142.28;52.50
4149;BME280;2088;51.032;7.082;2022-08-25T07:03:34;47829.66;;;-142.28;52.11
4149;BME280;2088;51.032;7.082;2022-08-25T07:06:00;47852.88;;;-142.28;51.56
4149;BME280;2088;51.032;7.082;2022-08-25T07:08:27;47835.47;;;-142.28;51.51
4149;BME280;2088;51.032;7.082;2022-08-25T07:10:54;47849.00;;;-142.28;50.91
4149;BME280;2088;51.032;7.082;2022-08-25T07:13:20;47860.63;;;-142.28;50.93
4149;BME280;2088;51.032;7.082;2022-08-25T07:15:52;47827.72;;;-142.28;50.13
4149;BME280;2088;51.032;7.082;2022-08-25T07:18:19;47819.97;;;-142.28;50.56
4149;BME280;2088;51.032;7.082;2022-08-25T07:20:47;47849.00;;;-142.28;50.58
4149;BME280;2088;51.032;7.082;2022-08-25T07:23:13;47858.69;;;-142.28;51.06
4149;BME280;2088;51.032;7.082;2022-08-25T07:25:40;47854.81;;;-142.28;50.59
4149;BME280;2088;51.032;7.082;2022-08-25T07:28:06;47850.94;;;-142.28;50.10
4149;BME280;2088;51.032;7.082;2022-08-25T07:30:33;47850.94;;;-142.28;50.03
4149;BME280;2088;51.032;7.082;2022-08-25T07:32:59;47839.31;;;-142.28;49.40
4149;BME280;2088;51.032;7.082;2022-08-25T07:35:26;47874.16;;;-142.28;49.38
4149;BME280;2088;51.032;7.082;2022-08-25T07:37:54;47849.00;;;-142.28;49.05
4149;BME280;2088;51.032;7.082;2022-08-25T07:40:23;47854.81;;;-142.28;48.59
4149;BME280;2088;51.032;7.082;2022-08-25T07:42:52;47854.81;;;-142.28;48.59
4149;BME280;2088;51.032;7.082;2022-08-25T07:45:20;47854.81;;;-142.28;48.55
4149;BME280;2088;51.032;7.082;2022-08-25T07:47:49;47845.13;;;-142.28;48.30
4149;BME280;2088;51.032;7.082;2022-08-25T07:50:18;47829.66;;;-142.28;48.21
4149;BME280;2088;51.032;7.082;2022-08-25T07:52:45;47845.13;;;-142.28;48.48
4149;BME280;2088;51.032;7.082;2022-08-25T07:55:13;47843.19;;;-142.28;48.15
4149;BME280;2088;51.032;7.082;2022-08-25T07:57:40;47854.81;;;-142.28;47.92
4149;BME280;2088;51.032;7.082;2022-08-25T08:00:07;47845.13;;;-142.28;47.75
4149;BME280;2088;51.032;7.082;2022-08-25T08:02:36;47862.53;;;-142.28;47.25
4149;BME280;2088;51.032;7.082;2022-08-25T08:05:03;47841.25;;;-142.28;47.10
4149;BME280;2088;51.032;7.082;2022-08-25T08:07:30;47845.13;;;-142.28;47.09
4149;BME280;2088;51.032;7.082;2022-08-25T08:09:57;47847.06;;;-142.28;46.88
4149;BME280;2088;51.032;7.082;2022-08-25T08:12:25;47854.81;;;-142.28;46.79
4149;BME280;2088;51.032;7.082;2022-08-25T08:14:52;47852.88;;;-142.28;46.67
4149;BME280;2088;51.032;7.082;2022-08-25T08:17:19;47849.00;;;-142.28;46.33
4149;BME280;2088;51.032;7.082;2022-08-25T08:19:46;47858.69;;;-142.28;45.80
4149;BME280;2088;51.032;7.082;2022-08-25T08:22:13;47866.41;;;-142.28;45.59
4149;BME280;2088;51.032;7.082;2022-08-25T08:24:41;47839.31;;;-142.28;45.70
4149;BME280;2088;51.032;7.082;2022-08-25T08:27:09;47854.81;;;-142.28;45.54
4149;BME280;2088;51.032;7.082;2022-08-25T08:29:39;47841.25;;;-142.28;44.61
4149;BME280;2088;51.032;7.082;2022-08-25T08:32:07;47833.53;;;-142.28;45.04
4149;BME280;2088;51.032;7.082;2022-08-25T08:34:34;47870.28;;;-142.28;44.69
4149;BME280;2088;51.032;7.082;2022-08-25T08:37:01;47854.81;;;-142.28;44.35
4149;BME280;2088;51.032;7.082;2022-08-25T08:39:28;47831.59;;;-142.28;44.57
4149;BME280;2088;51.032;7.082;2022-08-25T08:42:16;47841.25;;;-142.28;44.02
4149;BME280;2088;51.032;7.082;2022-08-25T08:45:03;47833.53;;;-142.28;43.93
4149;BME280;2088;51.032;7.082;2022-08-25T08:47:42;47864.47;;;-142.28;44.03
4149;BME280;2088;51.032;7.082;2022-08-25T08:50:21;47839.31;;;-142.28;43.49
4149;BME280;2088;51.032;7.082;2022-08-25T08:52:54;47862.53;;;-142.28;43.16
4149;BME280;2088;51.032;7.082;2022-08-25T08:55:27;47858.69;;;-142.28;43.75
4149;BME280;2088;51.032;7.082;2022-08-25T08:57:57;47847.06;;;-142.28;43.32
4149;BME280;2088;51.032;7.082;2022-08-25T09:00:26;47858.69;;;-142.28;43.40
4149;BME280;2088;51.032;7.082;2022-08-25T09:02:57;47841.25;;;-142.28;42.72
4149;BME280;2088;51.032;7.082;2022-08-25T09:05:28;47843.19;;;-142.28;42.82
4149;BME280;2088;51.032;7.082;2022-08-25T09:07:58;47847.06;;;-142.28;41.98
4149;BME280;2088;51.032;7.082;2022-08-25T09:10:33;47843.19;;;-142.28;42.79
4149;BME280;2088;51.032;7.082;2022-08-25T09:13:08;47843.19;;;-142.28;42.09
4149;BME280;2088;51.032;7.082;2022-08-25T09:15:45;47879.97;;;-142.28;41.91
4149;BME280;2088;51.032;7.082;2022-08-25T09:18:41;47827.72;;;-142.28;41.36
4149;BME280;2088;51.032;7.082;2022-08-25T09:21:13;47839.31;;;-142.28;41.53
4149;BME280;2088;51.032;7.082;2022-08-25T09:23:52;47843.19;;;-142.28;40.90
4149;BME280;2088;51.032;7.082;2022-08-25T09:26:28;47847.06;;;-142.28;41.10
4149;BME280;2088;51.032;7.082;2022-08-25T09:29:01;47843.19;;;-142.28;41.12
4149;BME280;2088;51.032;7.082;2022-08-25T09:31:31;47870.28;;;-142.28;41.33
4149;BME280;2088;51.032;7.082;2022-08-25T09:34:01;47837.38;;;-142.28;40.97
4149;BME280;2088;51.032;7.082;2022-08-25T09:36:29;47862.53;;;-142.28;40.41
4149;BME280;2088;51.032;7.082;2022-08-25T09:38:55;47852.88;;;-142.28;40.36
4149;BME280;2088;51.032;7.082;2022-08-25T09:41:38;47847.06;;;-142.28;39.55
4149;BME280;2088;51.032;7.082;2022-08-25T09:44:15;47854.81;;;-142.28;39.06
4149;BME280;2088;51.032;7.082;2022-08-25T09:46:54;47864.47;;;-142.28;39.22
4149;BME280;2088;51.032;7.082;2022-08-25T09:49:30;47866.41;;;-142.28;39.03
4149;BME280;2088;51.032;7.082;2022-08-25T09:52:25;47874.16;;;-142.28;39.82
4149;BME280;2088;51.032;7.082;2022-08-25T09:54:58;47849.00;;;-142.28;38.69
4149;BME280;2088;51.032;7.082;2022-08-25T09:57:31;47850.94;;;-142.28;39.07
4149;BME280;2088;51.032;7.082;2022-08-25T10:00:09;47854.81;;;-142.28;39.06
4149;BME280;2088;51.032;7.082;2022-08-25T10:02:38;47847.06;;;-142.28;38.40
4149;BME280;2088;51.032;7.082;2022-08-25T10:05:17;47837.38;;;-142.28;38.36
4149;BME280;2088;51.032;7.082;2022-08-25T10:07:49;47827.72;;;-142.28;38.01
4149;BME280;2088;51.032;7.082;2022-08-25T10:10:22;47841.25;;;-142.28;38.03
4149;BME280;2088;51.032;7.082;2022-08-25T10:12:50;47872.22;;;-142.28;38.27
4149;BME280;2088;51.032;7.082;2022-08-25T10:15:17;47845.13;;;-142.28;37.45
4149;BME280;2088;51.032;7.082;2022-08-25T10:17:45;47847.06;;;-142.28;37.14
4149;BME280;2088;51.032;7.082;2022-08-25T10:20:16;47850.94;;;-142.28;36.48
4149;BME280;2088;51.032;7.082;2022-08-25T10:22:45;47868.34;;;-142.28;36.66
4149;BME280;2088;51.032;7.082;2022-08-25T10:25:14;47868.34;;;-142.28;36.40
4149;BME280;2088;51.032;7.082;2022-08-25T10:27:45;47850.94;;;-142.28;36.14
4149;BME280;2088;51.032;7.082;2022-08-25T10:30:19;47854.81;;;-142.28;35.71
4149;BME280;2088;51.032;7.082;2022-08-25T10:33:04;47831.59;;;-142.28;35.69
4149;BME280;2088;51.032;7.082;2022-08-25T10:35:43;47850.94;;;-142.28;36.19
4149;BME280;2088;51.032;7.082;2022-08-25T10:38:28;47849.00;;;-142.28;35.51
4149;BME280;2088;51.032;7.082;2022-08-25T10:41:04;47862.53;;;-142.28;36.17
4149;BME280;2088;51.032;7.082;2022-08-25T10:43:37;47841.25;;;-142.28;36.09
4149;BME280;2088;51.032;7.082;2022-08-25T10:46:13;47858.69;;;-142.28;36.41
4149;BME280;2088;51.032;7.082;2022-08-25T10:48:50;47819.97;;;-142.28;36.22
4149;BME280;2088;51.032;7.082;2022-08-25T10:51:36;47860.63;;;-142.28;35.54
4149;BME280;2088;51.032;7.082;2022-08-25T10:54:09;47839.31;;;-142.28;34.94
4149;BME280;2088;51.032;7.082;2022-08-25T10:56:43;47872.22;;;-142.28;34.67
4149;BME280;2088;51.032;7.082;2022-08-25T10:59:22;47843.19;;;-142.28;33.90
4149;BME280;2088;51.032;7.082;2022-08-25T11:02:08;47864.47;;;-142.28;34.25
4149;BME280;2088;51.032;7.082;2022-08-25T11:04:43;47866.41;;;-142.28;34.31
4149;BME280;2088;51.032;7.082;2022-08-25T11:07:19;47854.81;;;-142.28;34.39
4149;BME280;2088;51.032;7.082;2022-08-25T11:09:49;47854.81;;;-142.28;33.81
4149;BME280;2088;51.032;7.082;2022-08-25T11:12:25;47868.34;;;-142.28;33.84
4149;BME280;2088;51.032;7.082;2022-08-25T11:14:56;47831.59;;;-142.28;34.02
4149;BME280;2088;51.032;7.082;2022-08-25T11:17:25;47856.75;;;-142.28;34.46
4149;BME280;2088;51.032;7.082;2022-08-25T11:19:56;47878.03;;;-142.28;32.74
4149;BME280;2088;51.032;7.082;2022-08-25T11:22:28;47868.34;;;-142.28;33.13
4149;BME280;2088;51.032;7.082;2022-08-25T11:25:00;47835.47;;;-142.28;31.67
4149;BME280;2088;51.032;7.082;2022-08-25T11:27:36;47831.59;;;-142.28;30.20
4149;BME280;2088;51.032;7.082;2022-08-25T11:30:06;47810.31;;;-142.28;28.26
4149;BME280;2088;51.032;7.082;2022-08-25T11:32:35;47769.66;;;-142.28;26.94
4149;BME280;2088;51.032;7.082;2022-08-25T11:35:06;47765.78;;;-142.28;26.35
4149;BME280;2088;51.032;7.082;2022-08-25T11:37:36;47736.78;;;-142.28;25.69
4149;BME280;2088;51.032;7.082;2022-08-25T11:40:19;47769.66;;;-142.28;25.33
4149;BME280;2088;51.032;7.082;2022-08-25T11:43:03;47775.47;;;-142.28;24.66
4149;BME280;2088;51.032;7.082;2022-08-25T11:45:46;47742.56;;;-142.28;24.32
4149;BME280;2088;51.032;7.082;2022-08-25T11:48:23;47765.78;;;-142.28;24.38
4149;BME280;2088;51.032;7.082;2022-08-25T11:51:03;47767.72;;;-142.28;24.48
4149;BME280;2088;51.032;7.082;2022-08-25T11:53:31;47719.34;;;-142.28;24.20
4149;BME280;2088;51.032;7.082;2022-08-25T11:56:00;47777.41;;;-142.28;23.89
4149;BME280;2088;51.032;7.082;2022-08-25T11:58:36;47831.59;;;-142.28;25.51
4149;BME280;2088;51.032;7.082;2022-08-25T12:01:08;47835.47;;;-142.28;25.69
4149;BME280;2088;51.032;7.082;2022-08-25T12:04:12;47806.44;;;-142.28;25.42
4149;BME280;2088;51.032;7.082;2022-08-25T12:10:09;47773.53;;;-142.28;24.19
4149;BME280;2088;51.032;7.082;2022-08-25T12:12:58;47701.94;;;-142.28;23.35
4149;BME280;2088;51.032;7.082;2022-08-25T12:15:27;47746.44;;;-142.28;23.30
4149;BME280;2088;51.032;7.082;2022-08-25T12:18:10;47715.50;;;-142.28;23.30
4149;BME280;2088;51.032;7.082;2022-08-25T12:21:09;47717.41;;;-142.28;22.41
4149;BME280;2088;51.032;7.082;2022-08-25T12:23:37;47773.53;;;-142.28;23.19
4149;BME280;2088;51.032;7.082;2022-08-25T12:26:12;47781.28;;;-142.28;23.35
4149;BME280;2088;51.032;7.082;2022-08-25T12:29:00;47823.84;;;-142.28;24.09
4149;BME280;2088;51.032;7.082;2022-08-25T12:31:40;47808.38;;;-142.28;23.94
4149;BME280;2088;51.032;7.082;2022-08-25T12:34:20;47719.34;;;-142.28;23.12
4149;BME280;2088;51.032;7.082;2022-08-25T12:36:56;47696.13;;;-142.28;22.69
4149;BME280;2088;51.032;7.082;2022-08-25T12:39:28;47674.84;;;-142.28;22.79
4149;BME280;2088;51.032;7.082;2022-08-25T12:41:59;47641.97;;;-142.28;22.50
4149;BME280;2088;51.032;7.082;2022-08-25T12:44:39;47680.66;;;-142.28;22.26
4149;BME280;2088;51.032;7.082;2022-08-25T12:47:12;47665.19;;;-142.28;21.83
4149;BME280;2088;51.032;7.082;2022-08-25T12:49:40;47672.91;;;-142.28;22.35
4149;BME280;2088;51.032;7.082;2022-08-25T12:52:10;47686.47;;;-142.28;22.15
4149;BME280;2088;51.032;7.082;2022-08-25T12:54:45;47682.59;;;-142.28;21.91
4149;BME280;2088;51.032;7.082;2022-08-25T12:57:39;47649.69;;;-142.28;21.97
4149;BME280;2088;51.032;7.082;2022-08-25T13:00:14;47655.50;;;-142.28;21.97
4149;BME280;2088;51.032;7.082;2022-08-25T13:03:25;47682.59;;;-142.28;21.78
4149;BME280;2088;51.032;7.082;2022-08-25T13:06:12;47663.25;;;-142.28;21.80
4149;BME280;2088;51.032;7.082;2022-08-25T13:08:55;47578.09;;;-142.28;21.54
4149;BME280;2088;51.032;7.082;2022-08-25T13:11:30;47638.09;;;-142.28;21.67
4149;BME280;2088;51.032;7.082;2022-08-25T13:14:06;47678.72;;;-142.28;21.64
4149;BME280;2088;51.032;7.082;2022-08-25T13:16:38;47690.34;;;-142.28;21.98
4149;BME280;2088;51.032;7.082;2022-08-25T13:19:05;47672.91;;;-142.28;21.64
4149;BME280;2088;51.032;7.082;2022-08-25T13:21:34;47711.63;;;-142.28;21.54